sensor_id;sensor_type;location;lat;lon;timestamp;pressure;altitude;pressure_sealevel;temperature;humidity
69667;BME280;66534;52.370;4.832;2024-03-22T00:00:23;101977.63;;;16.07;100.00
69667;BME280;66534;52.370;4.832;2024-03-22T00:00:53;101973.91;;;16.29;100.00
69667;BME280;66534;52.370;4.832;2024-03-22T00:01:24;101977.47;;;16.62;100.00
69667;BME280;66534;52.370;4.832;2024-03-22T00:01:54;101978.91;;;16.35;100.00
69667;BME280;66534;52.370;4.832;2024-03-22T00:02:25;101972.56;;;16.37;100.00
69667;BME280;66534;52.370;4.832;2024-03-22T00:02:56;101974.47;;;16.18;100.00
69667;BME280;66534;52.370;4.832;2024-03-22T00:03:26;101969.31;;;15.79;100.00
69667;BME280;66534;52.370;4.832;2024-03-22T00:03:56;101973.06;;;15.92;100.00
69667;BME280;66534;52.370;4.832;2024-03-22T00:04:27;101966.66;;;15.98;100.00
69667;BME280;66534;52.370;4.832;2024-03-22T00:04:57;101971.47;;;15.89;100.00
69667;BME280;66534;52.370;4.832;2024-03-22T00:05:28;101966.38;;;15.85;100.00
69667;BME280;66534;52.370;4.832;2024-03-22T00:05:58;101970.88;;;15.83;100.00
69667;BME280;66534;52.370;4.832;2024-03-22T00:06:28;101963.75;;;15.66;100.00
69667;BME280;66534;52.370;4.832;2024-03-22T00:06:59;101970.00;;;15.65;100.00
69667;BME280;66534;52.370;4.832;2024-03-22T00:07:29;101975.28;;;15.65;100.00
69667;BME280;66534;52.370;4.832;2024-03-22T00:07:59;101974.41;;;16.01;100.00
69667;BME280;66534;52.370;4.832;2024-03-22T00:08:30;101972.78;;;15.98;100.00
69667;BME280;66534;52.370;4.832;2024-03-22T00:09:00;101972.19;;;16.45;100.00
69667;BME280;66534;52.370;4.832;2024-03-22T00:09:31;101970.88;;;16.19;100.00
69667;BME280;66534;52.370;4.832;2024-03-22T00:10:01;101977.34;;;15.77;100.00
69667;BME280;66534;52.370;4.832;2024-03-22T00:10:32;101969.56;;;15.91;100.00
69667;BME280;66534;52.370;4.832;2024-03-22T00:11:02;101965.88;;;16.13;100.00
69667;BME280;66534;52.370;4.832;2024-03-22T00:11:33;101956.91;;;15.98;100.00
69667;BME280;66534;52.370;4.832;2024-03-22T00:12:03;101962.22;;;15.79;100.00
69667;BME280;66534;52.370;4.832;2024-03-22T00:12:34;101959.41;;;15.65;100.00
69667;BME280;66534;52.370;4.832;2024-03-22T00:13:04;101951.66;;;15.79;100.00
69667;BME280;66534;52.370;4.832;2024-03-22T00:13:35;101949.31;;;15.73;100.00
69667;BME280;66534;52.370;4.832;2024-03-22T00:14:05;101952.13;;;15.87;100.00
69667;BME280;66534;52.370;4.832;2024-03-22T00:14:36;101955.09;;;15.81;100.00
69667;BME280;66534;52.370;4.832;2024-03-22T00:15:06;101940.25;;;15.96;100.00
69667;BME280;66534;52.370;4.832;2024-03-22T00:15:37;101944.38;;;16.02;100.00
69667;BME280;66534;52.370;4.832;2024-03-22T00:16:07;101939.47;;;15.94;100.00
69667;BME280;66534;52.370;4.832;2024-03-22T00:16:38;101943.13;;;15.91;100.00
69667;BME280;66534;52.370;4.832;2024-03-22T00:17:08;101943.16;;;15.73;100.00
69667;BME280;66534;52.370;4.832;2024-03-22T00:17:38;101941.31;;;15.56;100.00
69667;BME280;66534;52.370;4.832;2024-03-22T00:18:09;101945.16;;;15.49;100.00
69667;BME280;66534;52.370;4.832;2024-03-22T00:18:39;101941.72;;;15.47;100.00
69667;BME280;66534;52.370;4.832;2024-03-22T00:19:10;101938.88;;;15.32;100.00
69667;BME280;66534;52.370;4.832;2024-03-22T00:19:40;101929.66;;;15.41;100.00
69667;BME280;66534;52.370;4.832;2024-03-22T00:20:10;101936.38;;;15.48;100.00
69667;BME280;66534;52.370;4.832;2024-03-22T00:20:41;101928.81;;;15.59;100.00
69667;BME280;66534;52.370;4.832;2024-03-22T00:21:11;101925.75;;;15.68;100.00
69667;BME280;66534;52.370;4.832;2024-03-22T00:21:41;101935.28;;;15.71;100.00
69667;BME280;66534;52.370;4.832;2024-03-22T00:22:12;101937.81;;;15.55;100.00
69667;BME280;66534;52.370;4.832;2024-03-22T00:22:42;101937.59;;;15.60;100.00
69667;BME280;66534;52.370;4.832;2024-03-22T00:23:13;101928.88;;;15.39;100.00
69667;BME280;66534;52.370;4.832;2024-03-22T00:23:44;101929.28;;;15.30;100.00
69667;BME280;66534;52.370;4.832;2024-03-22T00:24:15;101932.38;;;15.02;100.00
69667;BME280;66534;52.370;4.832;2024-03-22T00:24:46;101921.19;;;15.34;100.00
69667;BME280;66534;52.370;4.832;2024-03-22T00:25:16;101922.59;;;15.41;100.00
69667;BME280;66534;52.370;4.832;2024-03-22T00:25:46;101921.94;;;15.36;100.00
69667;BME280;66534;52.370;4.832;2024-03-22T00:26:17;101923.94;;;15.50;100.00
69667;BME280;66534;52.370;4.832;2024-03-22T00:26:47;101919.09;;;15.41;100.00
69667;BME280;66534;52.370;4.832;2024-03-22T00:27:18;101930.47;;;15.43;100.00
69667;BME280;66534;52.370;4.832;2024-03-22T00:27:48;101914.88;;;15.56;100.00
69667;BME280;66534;52.370;4.832;2024-03-22T00:28:18;101921.50;;;15.45;100.00
69667;BME280;66534;52.370;4.832;2024-03-22T00:28:49;101919.94;;;15.41;100.00
69667;BME280;66534;52.370;4.832;2024-03-22T00:29:19;101919.38;;;15.35;100.00
69667;BME280;66534;52.370;4.832;2024-03-22T00:29:50;101921.31;;;15.31;100.00
69667;BME280;66534;52.370;4.832;2024-03-22T00:30:20;101921.47;;;15.09;100.00
69667;BME280;66534;52.370;4.832;2024-03-22T00:30:50;101922.75;;;15.19;100.00
69667;BME280;66534;52.370;4.832;2024-03-22T00:31:21;101920.09;;;15.19;100.00
69667;BME280;66534;52.370;4.832;2024-03-22T00:31:51;101920.09;;;15.19;100.00
69667;BME280;66534;52.370;4.832;2024-03-22T00:32:21;101921.53;;;15.27;100.00
69667;BME280;66534;52.370;4.832;2024-03-22T00:32:52;101917.31;;;15.23;100.00
69667;BME280;66534;52.370;4.832;2024-03-22T00:33:22;101923.72;;;15.17;100.00
69667;BME280;66534;52.370;4.832;2024-03-22T00:33:52;101914.47;;;15.27;100.00
69667;BME280;66534;52.370;4.832;2024-03-22T00:34:23;101916.16;;;15.28;100.00
69667;BME280;66534;52.370;4.832;2024-03-22T00:34:53;101922.09;;;15.33;100.00
69667;BME280;66534;52.370;4.832;2024-03-22T00:35:24;101915.31;;;15.28;100.00
69667;BME280;66534;52.370;4.832;2024-03-22T00:35:54;101911.66;;;15.68;100.00
69667;BME280;66534;52.370;4.832;2024-03-22T00:36:24;101917.09;;;15.65;100.00
69667;BME280;66534;52.370;4.832;2024-03-22T00:36:55;101913.84;;;15.77;100.00
69667;BME280;66534;52.370;4.832;2024-03-22T00:37:25;101914.69;;;15.59;100.00
69667;BME280;66534;52.370;4.832;2024-03-22T00:37:56;101915.84;;;15.53;100.00
69667;BME280;66534;52.370;4.832;2024-03-22T00:38:26;101912.59;;;15.48;100.00
69667;BME280;66534;52.370;4.832;2024-03-22T00:38:57;101921.72;;;15.41;100.00
69667;BME280;66534;52.370;4.832;2024-03-22T00:39:27;101923.59;;;15.39;100.00
69667;BME280;66534;52.370;4.832;2024-03-22T00:39:58;101916.75;;;15.35;100.00
69667;BME280;66534;52.370;4.832;2024-03-22T00:40:28;101919.66;;;15.48;100.00
69667;BME280;66534;52.370;4.832;2024-03-22T00:40:58;101924.56;;;15.74;100.00
69667;BME280;66534;52.370;4.832;2024-03-22T00:41:29;101918.59;;;15.88;100.00
69667;BME280;66534;52.370;4.832;2024-03-22T00:41:59;101917.13;;;16.00;100.00
69667;BME280;66534;52.370;4.832;2024-03-22T00:42:30;101908.41;;;15.80;100.00
69667;BME280;66534;52.370;4.832;2024-03-22T00:43:00;101909.50;;;15.57;100.00
69667;BME280;66534;52.370;4.832;2024-03-22T00:43:30;101908.09;;;15.31;100.00
69667;BME280;66534;52.370;4.832;2024-03-22T00:44:01;101914.53;;;15.07;100.00
69667;BME280;66534;52.370;4.832;2024-03-22T00:44:31;101913.53;;;15.09;100.00
69667;BME280;66534;52.370;4.832;2024-03-22T00:45:01;101907.53;;;15.43;100.00
69667;BME280;66534;52.370;4.832;2024-03-22T00:45:32;101916.16;;;15.28;100.00
69667;BME280;66534;52.370;4.832;2024-03-22T00:46:02;101914.81;;;15.38;100.00
69667;BME280;66534;52.370;4.832;2024-03-22T00:46:33;101919.75;;;15.27;100.00
69667;BME280;66534;52.370;4.832;2024-03-22T00:47:03;101910.97;;;15.27;100.00
69667;BME280;66534;52.370;4.832;2024-03-22T00:47:35;101917.09;;;15.27;100.00
69667;BME280;66534;52.370;4.832;2024-03-22T00:48:06;101917.81;;;15.31;100.00
69667;BME280;66534;52.370;4.832;2024-03-22T00:48:36;101916.66;;;15.55;100.00
69667;BME280;66534;52.370;4.832;2024-03-22T00:49:07;101912.84;;;15.61;100.00
69667;BME280;66534;52.370;4.832;2024-03-22T00:49:37;101916.22;;;15.45;100.00
69667;BME280;66534;52.370;4.832;2024-03-22T00:50:07;101922.44;;;15.44;100.00
69667;BME280;66534;52.370;4.832;2024-03-22T00:50:38;101916.06;;;15.49;100.00
69667;BME280;66534;52.370;4.832;2024-03-22T00:51:08;101916.50;;;15.94;100.00
69667;BME280;66534;52.370;4.832;2024-03-22T00:51:39;101915.56;;;16.13;100.00
69667;BME280;66534;52.370;4.832;2024-03-22T00:52:10;101917.25;;;15.79;100.00
69667;BME280;66534;52.370;4.832;2024-03-22T00:52:40;101922.94;;;15.53;100.00
69667;BME280;66534;52.370;4.832;2024-03-22T00:53:11;101924.22;;;15.44;100.00
69667;BME280;66534;52.370;4.832;2024-03-22T00:53:42;101927.25;;;15.36;100.00
69667;BME280;66534;52.370;4.832;2024-03-22T00:54:13;101925.94;;;15.45;100.00
69667;BME280;66534;52.370;4.832;2024-03-22T00:54:43;101925.22;;;15.60;100.00
69667;BME280;66534;52.370;4.832;2024-03-22T00:55:13;101924.56;;;15.74;100.00
69667;BME280;66534;52.370;4.832;2024-03-22T00:55:44;101918.59;;;15.88;100.00
69667;BME280;66534;52.370;4.832;2024-03-22T00:56:16;101915.81;;;16.08;100.00
69667;BME280;66534;52.370;4.832;2024-03-22T00:56:46;101921.81;;;15.94;100.00
69667;BME280;66534;52.370;4.832;2024-03-22T00:57:17;101922.28;;;16.03;100.00
69667;BME280;66534;52.370;4.832;2024-03-22T00:57:47;101928.00;;;15.57;100.00
69667;BME280;66534;52.370;4.832;2024-03-22T00:58:18;101929.31;;;15.49;100.00
69667;BME280;66534;52.370;4.832;2024-03-22T00:58:49;101924.72;;;15.52;100.00
69667;BME280;66534;52.370;4.832;2024-03-22T00:59:19;101931.44;;;15.96;100.00
69667;BME280;66534;52.370;4.832;2024-03-22T00:59:49;101924.84;;;16.04;100.00
69667;BME280;66534;52.370;4.832;2024-03-22T01:00:20;101922.50;;;15.62;100.00
69667;BME280;66534;52.370;4.832;2024-03-22T01:00:50;101924.69;;;15.35;100.00
69667;BME280;66534;52.370;4.832;2024-03-22T01:01:21;101921.38;;;15.67;100.00
69667;BME280;66534;52.370;4.832;2024-03-22T01:01:51;101918.75;;;15.67;100.00
69667;BME280;66534;52.370;4.832;2024-03-22T01:02:21;101923.66;;;15.37;100.00
69667;BME280;66534;52.370;4.832;2024-03-22T01:02:52;101922.00;;;15.54;100.00
69667;BME280;66534;52.370;4.832;2024-03-22T01:03:23;101921.78;;;15.58;100.00
69667;BME280;66534;52.370;4.832;2024-03-22T01:03:53;101827.94;;;15.12;100.00
69667;BME280;66534;52.370;4.832;2024-03-22T01:04:23;101925.78;;;15.67;100.00
69667;BME280;66534;52.370;4.832;2024-03-22T01:04:54;101916.56;;;15.57;100.00
69667;BME280;66534;52.370;4.832;2024-03-22T01:05:24;101915.22;;;15.29;100.00
69667;BME280;66534;52.370;4.832;2024-03-22T01:05:56;101919.22;;;15.57;100.00
69667;BME280;66534;52.370;4.832;2024-03-22T01:06:27;101924.06;;;15.85;100.00
69667;BME280;66534;52.370;4.832;2024-03-22T01:06:58;101924.38;;;15.60;100.00
69667;BME280;66534;52.370;4.832;2024-03-22T01:07:29;101920.25;;;15.35;100.00
69667;BME280;66534;52.370;4.832;2024-03-22T01:07:59;101913.06;;;15.37;100.00
69667;BME280;66534;52.370;4.832;2024-03-22T01:08:29;101918.50;;;15.53;100.00
69667;BME280;66534;52.370;4.832;2024-03-22T01:09:00;101906.00;;;15.57;100.00
69667;BME280;66534;52.370;4.832;2024-03-22T01:09:31;101912.25;;;15.18;100.00
69667;BME280;66534;52.370;4.832;2024-03-22T01:10:01;101916.50;;;15.20;100.00
69667;BME280;66534;52.370;4.832;2024-03-22T01:10:33;101906.97;;;15.18;100.00
69667;BME280;66534;52.370;4.832;2024-03-22T01:11:04;101912.75;;;15.26;100.00
69667;BME280;66534;52.370;4.832;2024-03-22T01:11:34;101906.50;;;15.08;100.00
69667;BME280;66534;52.370;4.832;2024-03-22T01:12:05;101912.38;;;15.15;100.00
69667;BME280;66534;52.370;4.832;2024-03-22T01:12:35;101913.03;;;15.39;100.00
69667;BME280;66534;52.370;4.832;2024-03-22T01:13:06;101907.91;;;15.53;100.00
69667;BME280;66534;52.370;4.832;2024-03-22T01:13:36;101909.88;;;15.68;100.00
69667;BME280;66534;52.370;4.832;2024-03-22T01:14:07;101908.09;;;15.31;100.00
69667;BME280;66534;52.370;4.832;2024-03-22T01:14:37;101903.47;;;15.17;100.00
69667;BME280;66534;52.370;4.832;2024-03-22T01:15:07;101909.03;;;15.11;100.00
69667;BME280;66534;52.370;4.832;2024-03-22T01:15:38;101908.53;;;15.22;100.00
69667;BME280;66534;52.370;4.832;2024-03-22T01:16:09;101905.22;;;15.36;100.00
69667;BME280;66534;52.370;4.832;2024-03-22T01:16:39;101906.38;;;15.30;100.00
69667;BME280;66534;52.370;4.832;2024-03-22T01:17:11;101916.09;;;15.11;100.00
69667;BME280;66534;52.370;4.832;2024-03-22T01:17:41;101908.22;;;15.28;100.00
69667;BME280;66534;52.370;4.832;2024-03-22T01:18:12;101908.66;;;15.38;100.00
69667;BME280;66534;52.370;4.832;2024-03-22T01:18:42;101908.28;;;15.45;100.00
69667;BME280;66534;52.370;4.832;2024-03-22T01:19:13;101912.34;;;15.53;100.00
69667;BME280;66534;52.370;4.832;2024-03-22T01:19:43;101901.69;;;15.54;100.00
69667;BME280;66534;52.370;4.832;2024-03-22T01:20:14;101914.97;;;15.72;100.00
69667;BME280;66534;52.370;4.832;2024-03-22T01:20:44;101901.63;;;15.75;100.00
69667;BME280;66534;52.370;4.832;2024-03-22T01:21:15;101899.88;;;15.18;100.00
69667;BME280;66534;52.370;4.832;2024-03-22T01:21:45;101907.72;;;14.82;100.00
69667;BME280;66534;52.370;4.832;2024-03-22T01:22:16;101904.88;;;15.25;100.00
69667;BME280;66534;52.370;4.832;2024-03-22T01:22:47;101910.22;;;15.42;100.00
69667;BME280;66534;52.370;4.832;2024-03-22T01:23:18;101905.56;;;15.66;100.00
69667;BME280;66534;52.370;4.832;2024-03-22T01:23:48;101912.03;;;15.23;100.00
69667;BME280;66534;52.370;4.832;2024-03-22T01:24:19;101910.91;;;15.09;100.00
69667;BME280;66534;52.370;4.832;2024-03-22T01:24:49;101910.69;;;14.56;100.00
69667;BME280;66534;52.370;4.832;2024-03-22T01:25:19;101913.94;;;14.81;100.00
69667;BME280;66534;52.370;4.832;2024-03-22T01:25:50;101913.63;;;14.87;100.00
69667;BME280;66534;52.370;4.832;2024-03-22T01:26:20;101915.31;;;14.90;100.00
69667;BME280;66534;52.370;4.832;2024-03-22T01:26:51;101921.16;;;14.97;100.00
69667;BME280;66534;52.370;4.832;2024-03-22T01:27:21;101911.56;;;14.75;100.00
69667;BME280;66534;52.370;4.832;2024-03-22T01:27:51;101924.31;;;14.65;100.00
69667;BME280;66534;52.370;4.832;2024-03-22T01:28:22;101913.16;;;14.98;100.00
69667;BME280;66534;52.370;4.832;2024-03-22T01:28:52;101917.81;;;15.12;100.00
69667;BME280;66534;52.370;4.832;2024-03-22T01:29:22;101914.19;;;15.14;100.00
69667;BME280;66534;52.370;4.832;2024-03-22T01:29:53;101916.09;;;15.30;100.00
69667;BME280;66534;52.370;4.832;2024-03-22T01:30:23;101913.94;;;15.00;100.00
69667;BME280;66534;52.370;4.832;2024-03-22T01:30:58;101912.78;;;14.87;100.00
69667;BME280;66534;52.370;4.832;2024-03-22T01:31:28;101913.38;;;15.12;100.00
69667;BME280;66534;52.370;4.832;2024-03-22T01:31:59;101913.72;;;15.05;100.00
69667;BME280;66534;52.370;4.832;2024-03-22T01:32:29;101911.94;;;15.24;100.00
69667;BME280;66534;52.370;4.832;2024-03-22T01:33:00;101921.00;;;15.37;100.00
69667;BME280;66534;52.370;4.832;2024-03-22T01:33:31;101910.66;;;15.52;100.00
69667;BME280;66534;52.370;4.832;2024-03-22T01:34:01;101911.47;;;15.35;100.00
69667;BME280;66534;52.370;4.832;2024-03-22T01:34:32;101912.03;;;15.23;100.00
69667;BME280;66534;52.370;4.832;2024-03-22T01:35:02;101912.16;;;15.19;100.00
69667;BME280;66534;52.370;4.832;2024-03-22T01:35:33;101910.19;;;15.06;100.00
69667;BME280;66534;52.370;4.832;2024-03-22T01:36:03;101915.31;;;14.90;100.00
69667;BME280;66534;52.370;4.832;2024-03-22T01:36:35;101915.09;;;14.94;100.00
69667;BME280;66534;52.370;4.832;2024-03-22T01:37:05;101915.81;;;14.98;100.00
69667;BME280;66534;52.370;4.832;2024-03-22T01:37:36;101910.69;;;14.75;100.00
69667;BME280;66534;52.370;4.832;2024-03-22T01:38:06;101911.66;;;14.92;100.00
69667;BME280;66534;52.370;4.832;2024-03-22T01:38:37;101913.22;;;14.78;100.00
69667;BME280;66534;52.370;4.832;2024-03-22T01:39:07;101909.28;;;14.86;100.00
69667;BME280;66534;52.370;4.832;2024-03-22T01:39:37;101908.34;;;14.87;100.00
69667;BME280;66534;52.370;4.832;2024-03-22T01:40:08;101913.81;;;14.84;100.00
69667;BME280;66534;52.370;4.832;2024-03-22T01:40:39;101909.19;;;14.69;100.00
69667;BME280;66534;52.370;4.832;2024-03-22T01:41:09;101909.63;;;14.60;100.00
69667;BME280;66534;52.370;4.832;2024-03-22T01:41:39;101909.94;;;14.91;100.00
69667;BME280;66534;52.370;4.832;2024-03-22T01:42:10;101909.28;;;14.86;100.00
69667;BME280;66534;52.370;4.832;2024-03-22T01:42:41;101906.94;;;14.80;100.00
69667;BME280;66534;52.370;4.832;2024-03-22T01:43:11;101902.66;;;15.15;100.00
69667;BME280;66534;52.370;4.832;2024-03-22T01:43:41;101898.09;;;15.19;100.00
69667;BME280;66534;52.370;4.832;2024-03-22T01:44:12;101898.25;;;15.35;100.00
69667;BME280;66534;52.370;4.832;2024-03-22T01:44:43;101900.88;;;14.97;100.00
69667;BME280;66534;52.370;4.832;2024-03-22T01:45:14;101904.59;;;15.12;100.00
69667;BME280;66534;52.370;4.832;2024-03-22T01:45:45;101899.75;;;15.22;100.00
69667;BME280;66534;52.370;4.832;2024-03-22T01:46:16;101904.88;;;15.25;100.00
69667;BME280;66534;52.370;4.832;2024-03-22T01:46:46;101892.50;;;15.25;100.00
69667;BME280;66534;52.370;4.832;2024-03-22T01:47:18;101895.69;;;15.14;100.00
69667;BME280;66534;52.370;4.832;2024-03-22T01:47:48;101902.09;;;15.09;100.00
69667;BME280;66534;52.370;4.832;2024-03-22T01:48:19;101891.50;;;15.09;100.00
69667;BME280;66534;52.370;4.832;2024-03-22T01:48:50;101888.25;;;14.85;100.00
69667;BME280;66534;52.370;4.832;2024-03-22T01:49:21;101896.09;;;15.05;100.00
69667;BME280;66534;52.370;4.832;2024-03-22T01:49:52;101892.66;;;15.03;100.00
69667;BME280;66534;52.370;4.832;2024-03-22T01:50:25;101889.72;;;14.72;100.00
69667;BME280;66534;52.370;4.832;2024-03-22T01:50:56;101886.56;;;14.63;100.00
69667;BME280;66534;52.370;4.832;2024-03-22T01:51:26;101886.63;;;14.62;100.00
69667;BME280;66534;52.370;4.832;2024-03-22T01:51:57;101893.56;;;14.64;100.00
69667;BME280;66534;52.370;4.832;2024-03-22T01:52:27;101895.09;;;15.08;100.00
69667;BME280;66534;52.370;4.832;2024-03-22T01:52:58;101891.25;;;15.15;100.00
69667;BME280;66534;52.370;4.832;2024-03-22T01:53:28;101895.31;;;14.84;100.00
69667;BME280;66534;52.370;4.832;2024-03-22T01:53:59;101892.09;;;14.97;100.00
69667;BME280;66534;52.370;4.832;2024-03-22T01:54:31;101896.19;;;15.23;100.00
69667;BME280;66534;52.370;4.832;2024-03-22T01:55:02;101891.03;;;15.38;100.00
69667;BME280;66534;52.370;4.832;2024-03-22T01:55:34;101884.78;;;15.39;100.00
69667;BME280;66534;52.370;4.832;2024-03-22T01:56:05;101882.53;;;14.94;100.00
69667;BME280;66534;52.370;4.832;2024-03-22T01:56:37;101891.59;;;14.88;100.00
69667;BME280;66534;52.370;4.832;2024-03-22T01:57:08;101894.94;;;14.92;100.00
69667;BME280;66534;52.370;4.832;2024-03-22T01:57:39;101889.34;;;14.79;100.00
69667;BME280;66534;52.370;4.832;2024-03-22T01:58:10;101896.53;;;15.15;100.00
69667;BME280;66534;52.370;4.832;2024-03-22T01:58:42;101891.75;;;15.23;100.00
69667;BME280;66534;52.370;4.832;2024-03-22T01:59:13;101890.94;;;15.40;100.00
69667;BME280;66534;52.370;4.832;2024-03-22T01:59:44;101887.72;;;14.95;100.00
69667;BME280;66534;52.370;4.832;2024-03-22T02:00:19;101894.88;;;15.12;100.00
69667;BME280;66534;52.370;4.832;2024-03-22T02:00:50;101892.25;;;14.93;100.00
69667;BME280;66534;52.370;4.832;2024-03-22T02:01:20;101887.13;;;14.70;100.00
69667;BME280;66534;52.370;4.832;2024-03-22T02:01:51;101885.09;;;14.77;100.00
69667;BME280;66534;52.370;4.832;2024-03-22T02:02:21;101894.16;;;14.90;100.00
69667;BME280;66534;52.370;4.832;2024-03-22T02:02:55;101891.81;;;15.03;100.00
69667;BME280;66534;52.370;4.832;2024-03-22T02:03:25;101894.97;;;15.11;100.00
69667;BME280;66534;52.370;4.832;2024-03-22T02:03:55;101890.84;;;15.41;100.00
69667;BME280;66534;52.370;4.832;2024-03-22T02:04:26;101883.81;;;15.23;100.00
69667;BME280;66534;52.370;4.832;2024-03-22T02:04:56;101889.59;;;15.12;100.00
69667;BME280;66534;52.370;4.832;2024-03-22T02:05:26;101884.75;;;15.22;100.00
69667;BME280;66534;52.370;4.832;2024-03-22T02:05:57;101880.38;;;15.02;100.00
69667;BME280;66534;52.370;4.832;2024-03-22T02:06:27;101880.03;;;14.91;100.00
69667;BME280;66534;52.370;4.832;2024-03-22T02:06:59;101888.06;;;14.69;100.00
69667;BME280;66534;52.370;4.832;2024-03-22T02:07:29;101876.78;;;14.65;100.00
69667;BME280;66534;52.370;4.832;2024-03-22T02:08:00;101884.09;;;14.98;100.00
69667;BME280;66534;52.370;4.832;2024-03-22T02:08:30;101877.88;;;15.54;100.00
69667;BME280;66534;52.370;4.832;2024-03-22T02:09:01;101870.78;;;15.37;100.00
69667;BME280;66534;52.370;4.832;2024-03-22T02:09:34;101875.06;;;15.40;100.00
69667;BME280;66534;52.370;4.832;2024-03-22T02:10:06;101873.03;;;14.90;100.00
69667;BME280;66534;52.370;4.832;2024-03-22T02:10:38;101873.16;;;14.87;100.00
69667;BME280;66534;52.370;4.832;2024-03-22T02:11:08;101871.38;;;14.48;100.00
69667;BME280;66534;52.370;4.832;2024-03-22T02:11:39;101870.16;;;14.94;100.00
69667;BME280;66534;52.370;4.832;2024-03-22T02:12:10;101870.72;;;15.20;100.00
69667;BME280;66534;52.370;4.832;2024-03-22T02:12:41;101868.13;;;15.01;100.00
69667;BME280;66534;52.370;4.832;2024-03-22T02:13:11;101865.16;;;14.69;100.00
69667;BME280;66534;52.370;4.832;2024-03-22T02:13:42;101867.94;;;14.66;100.00
69667;BME280;66534;52.370;4.832;2024-03-22T02:14:13;101862.94;;;14.79;100.00
69667;BME280;66534;52.370;4.832;2024-03-22T02:14:43;101861.38;;;14.75;100.00
69667;BME280;66534;52.370;4.832;2024-03-22T02:15:14;101854.94;;;14.62;100.00
69667;BME280;66534;52.370;4.832;2024-03-22T02:15:44;101857.38;;;14.66;100.00
69667;BME280;66534;52.370;4.832;2024-03-22T02:16:15;101851.09;;;14.69;100.00
69667;BME280;66534;52.370;4.832;2024-03-22T02:16:46;101852.25;;;14.82;100.00
69667;BME280;66534;52.370;4.832;2024-03-22T02:17:16;101850.66;;;14.78;100.00
69667;BME280;66534;52.370;4.832;2024-03-22T02:17:46;101855.09;;;14.78;100.00
69667;BME280;66534;52.370;4.832;2024-03-22T02:18:17;101846.41;;;14.76;100.00
69667;BME280;66534;52.370;4.832;2024-03-22T02:18:47;101853.66;;;14.52;100.00
69667;BME280;66534;52.370;4.832;2024-03-22T02:19:19;101855.56;;;14.67;100.00
69667;BME280;66534;52.370;4.832;2024-03-22T02:19:49;101851.59;;;14.96;100.00
69667;BME280;66534;52.370;4.832;2024-03-22T02:20:20;101848.59;;;15.04;100.00
69667;BME280;66534;52.370;4.832;2024-03-22T02:20:50;101851.75;;;14.93;100.00
69667;BME280;66534;52.370;4.832;2024-03-22T02:21:20;101851.00;;;14.70;100.00
69667;BME280;66534;52.370;4.832;2024-03-22T02:21:51;101845.91;;;14.67;100.00
69667;BME280;66534;52.370;4.832;2024-03-22T02:22:21;101845.47;;;14.77;100.00
69667;BME280;66534;52.370;4.832;2024-03-22T02:22:51;101843.66;;;14.96;100.00
69667;BME280;66534;52.370;4.832;2024-03-22T02:23:26;101844.16;;;15.04;100.00
69667;BME280;66534;52.370;4.832;2024-03-22T02:24:02;101844.09;;;14.87;100.00
69667;BME280;66534;52.370;4.832;2024-03-22T02:24:33;101842.03;;;14.56;100.00
69667;BME280;66534;52.370;4.832;2024-03-22T02:25:03;101844.38;;;14.62;100.00
69667;BME280;66534;52.370;4.832;2024-03-22T02:25:34;101839.81;;;14.45;100.00
69667;BME280;66534;52.370;4.832;2024-03-22T02:26:05;101842.03;;;14.35;100.00
69667;BME280;66534;52.370;4.832;2024-03-22T02:26:36;101839.69;;;14.48;100.00
69667;BME280;66534;52.370;4.832;2024-03-22T02:27:07;101828.09;;;14.52;100.00
69667;BME280;66534;52.370;4.832;2024-03-22T02:27:38;101831.38;;;14.95;100.00
69667;BME280;66534;52.370;4.832;2024-03-22T02:28:09;101821.63;;;14.78;100.00
69667;BME280;66534;52.370;4.832;2024-03-22T02:28:39;101822.63;;;14.76;100.00
69667;BME280;66534;52.370;4.832;2024-03-22T02:29:09;101822.56;;;14.77;100.00
69667;BME280;66534;52.370;4.832;2024-03-22T02:29:40;101818.91;;;14.80;100.00
69667;BME280;66534;52.370;4.832;2024-03-22T02:30:11;101820.75;;;14.59;100.00
69667;BME280;66534;52.370;4.832;2024-03-22T02:30:41;101810.03;;;14.62;100.00
69667;BME280;66534;52.370;4.832;2024-03-22T02:31:12;101814.78;;;14.93;100.00
69667;BME280;66534;52.370;4.832;2024-03-22T02:31:42;101818.34;;;14.73;100.00
69667;BME280;66534;52.370;4.832;2024-03-22T02:32:12;101808.97;;;14.66;100.00
69667;BME280;66534;52.370;4.832;2024-03-22T02:32:43;101813.13;;;14.90;100.00
69667;BME280;66534;52.370;4.832;2024-03-22T02:33:13;101807.25;;;14.84;100.00
69667;BME280;66534;52.370;4.832;2024-03-22T02:33:44;101809.84;;;14.85;100.00
69667;BME280;66534;52.370;4.832;2024-03-22T02:34:14;101814.56;;;14.60;100.00
69667;BME280;66534;52.370;4.832;2024-03-22T02:34:44;101814.56;;;14.60;100.00
69667;BME280;66534;52.370;4.832;2024-03-22T02:35:16;101801.91;;;14.85;100.00
69667;BME280;66534;52.370;4.832;2024-03-22T02:35:47;101807.53;;;15.15;100.00
69667;BME280;66534;52.370;4.832;2024-03-22T02:36:17;101807.91;;;14.51;100.00
69667;BME280;66534;52.370;4.832;2024-03-22T02:36:48;101807.34;;;14.63;100.00
69667;BME280;66534;52.370;4.832;2024-03-22T02:37:18;101802.75;;;15.05;100.00
69667;BME280;66534;52.370;4.832;2024-03-22T02:37:48;101799.44;;;14.63;100.00
69667;BME280;66534;52.370;4.832;2024-03-22T02:38:19;101799.56;;;14.40;100.00